sensor_id;sensor_type;location;lat;lon;timestamp;P1;durP1;ratioP1;P2;durP2;ratioP2
22357;SDS011;11346;50.150;8.150;2023-07-29T00:01:54;1.90;;;1.80;;
22357;SDS011;11346;50.150;8.150;2023-07-29T00:04:23;2.73;;;1.83;;
22357;SDS011;11346;50.150;8.150;2023-07-29T00:06:50;2.53;;;1.93;;
22357;SDS011;11346;50.150;8.150;2023-07-29T00:09:17;2.77;;;1.93;;
22357;SDS011;11346;50.150;8.150;2023-07-29T00:11:44;2.90;;;1.87;;
22357;SDS011;11346;50.150;8.150;2023-07-29T00:14:11;2.00;;;1.80;;
22357;SDS011;11346;50.150;8.150;2023-07-29T00:16:38;2.23;;;1.90;;
22357;SDS011;11346;50.150;8.150;2023-07-29T00:19:05;2.30;;;2.10;;
22357;SDS011;11346;50.150;8.150;2023-07-29T00:21:33;3.23;;;2.20;;
22357;SDS011;11346;50.150;8.150;2023-07-29T00:24:00;2.20;;;2.00;;
22357;SDS011;11346;50.150;8.150;2023-07-29T00:26:27;2.40;;;2.30;;
22357;SDS011;11346;50.150;8.150;2023-07-29T00:28:54;2.50;;;2.30;;
22357;SDS011;11346;50.150;8.150;2023-07-29T00:31:21;2.53;;;2.30;;
22357;SDS011;11346;50.150;8.150;2023-07-29T00:33:49;2.60;;;2.40;;
22357;SDS011;11346;50.150;8.150;2023-07-29T00:36:17;2.70;;;2.50;;
22357;SDS011;11346;50.150;8.150;2023-07-29T00:38:46;2.40;;;2.20;;
22357;SDS011;11346;50.150;8.150;2023-07-29T00:41:13;3.57;;;2.70;;
22357;SDS011;11346;50.150;8.150;2023-07-29T00:43:41;2.97;;;2.77;;
22357;SDS011;11346;50.150;8.150;2023-07-29T00:46:08;3.70;;;3.40;;
22357;SDS011;11346;50.150;8.150;2023-07-29T00:48:37;3.93;;;3.63;;
22357;SDS011;11346;50.150;8.150;2023-07-29T00:51:05;5.00;;;4.50;;
22357;SDS011;11346;50.150;8.150;2023-07-29T00:53:32;9.60;;;5.50;;
22357;SDS011;11346;50.150;8.150;2023-07-29T00:56:00;6.70;;;6.00;;
22357;SDS011;11346;50.150;8.150;2023-07-29T00:58:27;8.40;;;6.07;;
22357;SDS011;11346;50.150;8.150;2023-07-29T01:00:54;7.63;;;6.30;;
22357;SDS011;11346;50.150;8.150;2023-07-29T01:03:21;7.20;;;6.50;;
22357;SDS011;11346;50.150;8.150;2023-07-29T01:05:50;6.27;;;5.67;;
22357;SDS011;11346;50.150;8.150;2023-07-29T01:08:22;6.50;;;5.50;;
22357;SDS011;11346;50.150;8.150;2023-07-29T01:10:51;7.23;;;5.67;;
22357;SDS011;11346;50.150;8.150;2023-07-29T01:13:25;6.03;;;5.10;;
22357;SDS011;11346;50.150;8.150;2023-07-29T01:15:56;6.53;;;5.50;;
22357;SDS011;11346;50.150;8.150;2023-07-29T01:18:26;6.30;;;5.27;;
22357;SDS011;11346;50.150;8.150;2023-07-29T01:20:54;6.17;;;5.60;;
22357;SDS011;11346;50.150;8.150;2023-07-29T01:23:24;6.57;;;5.87;;
22357;SDS011;11346;50.150;8.150;2023-07-29T01:25:52;8.03;;;5.83;;
22357;SDS011;11346;50.150;8.150;2023-07-29T01:28:19;6.03;;;5.47;;
22357;SDS011;11346;50.150;8.150;2023-07-29T01:30:46;6.63;;;5.93;;
22357;SDS011;11346;50.150;8.150;2023-07-29T01:33:16;7.07;;;5.67;;
22357;SDS011;11346;50.150;8.150;2023-07-29T01:35:45;6.83;;;6.13;;
22357;SDS011;11346;50.150;8.150;2023-07-29T01:38:14;7.50;;;5.93;;
22357;SDS011;11346;50.150;8.150;2023-07-29T01:40:45;5.67;;;5.03;;
22357;SDS011;11346;50.150;8.150;2023-07-29T01:43:12;5.57;;;5.07;;
22357;SDS011;11346;50.150;8.150;2023-07-29T01:45:39;5.80;;;4.80;;
22357;SDS011;11346;50.150;8.150;2023-07-29T01:48:07;7.73;;;4.83;;
22357;SDS011;11346;50.150;8.150;2023-07-29T01:50:34;6.90;;;5.90;;
22357;SDS011;11346;50.150;8.150;2023-07-29T01:53:01;7.73;;;6.73;;
22357;SDS011;11346;50.150;8.150;2023-07-29T01:55:28;8.07;;;6.90;;
22357;SDS011;11346;50.150;8.150;2023-07-29T01:57:57;17.23;;;7.73;;
22357;SDS011;11346;50.150;8.150;2023-07-29T02:00:24;8.90;;;6.77;;
22357;SDS011;11346;50.150;8.150;2023-07-29T02:02:51;8.30;;;6.33;;
22357;SDS011;11346;50.150;8.150;2023-07-29T02:05:18;6.63;;;6.00;;
22357;SDS011;11346;50.150;8.150;2023-07-29T02:07:45;6.93;;;6.13;;
22357;SDS011;11346;50.150;8.150;2023-07-29T02:10:12;8.13;;;6.13;;
22357;SDS011;11346;50.150;8.150;2023-07-29T02:12:39;6.23;;;5.47;;
22357;SDS011;11346;50.150;8.150;2023-07-29T02:15:08;6.10;;;5.50;;
22357;SDS011;11346;50.150;8.150;2023-07-29T02:17:35;7.17;;;5.70;;
22357;SDS011;11346;50.150;8.150;2023-07-29T02:20:03;7.77;;;6.17;;
22357;SDS011;11346;50.150;8.150;2023-07-29T02:22:30;8.67;;;5.90;;
22357;SDS011;11346;50.150;8.150;2023-07-29T02:24:58;9.20;;;6.77;;
22357;SDS011;11346;50.150;8.150;2023-07-29T02:27:26;9.33;;;6.30;;
22357;SDS011;11346;50.150;8.150;2023-07-29T02:29:53;8.00;;;6.37;;
22357;SDS011;11346;50.150;8.150;2023-07-29T02:32:21;7.07;;;6.37;;
22357;SDS011;11346;50.150;8.150;2023-07-29T02:34:48;6.87;;;5.60;;
22357;SDS011;11346;50.150;8.150;2023-07-29T02:37:15;7.20;;;5.40;;
22357;SDS011;11346;50.150;8.150;2023-07-29T02:39:42;5.80;;;4.43;;
22357;SDS011;11346;50.150;8.150;2023-07-29T02:42:09;5.33;;;4.83;;
22357;SDS011;11346;50.150;8.150;2023-07-29T02:44:36;5.83;;;4.60;;
22357;SDS011;11346;50.150;8.150;2023-07-29T02:47:03;5.83;;;4.57;;
22357;SDS011;11346;50.150;8.150;2023-07-29T02:49:32;4.77;;;4.30;;
22357;SDS011;11346;50.150;8.150;2023-07-29T02:51:59;8.67;;;5.70;;
22357;SDS011;11346;50.150;8.150;2023-07-29T02:54:26;7.50;;;5.30;;
22357;SDS011;11346;50.150;8.150;2023-07-29T02:56:53;7.47;;;5.63;;
22357;SDS011;11346;50.150;8.150;2023-07-29T02:59:20;8.70;;;6.00;;
22357;SDS011;11346;50.150;8.150;2023-07-29T03:01:47;8.23;;;6.70;;
22357;SDS011;11346;50.150;8.150;2023-07-29T03:04:14;7.60;;;6.50;;
22357;SDS011;11346;50.150;8.150;2023-07-29T03:06:42;9.40;;;6.53;;
22357;SDS011;11346;50.150;8.150;2023-07-29T03:09:10;9.17;;;7.03;;
22357;SDS011;11346;50.150;8.150;2023-07-29T03:11:37;8.77;;;6.97;;
22357;SDS011;11346;50.150;8.150;2023-07-29T03:14:04;9.80;;;6.83;;
22357;SDS011;11346;50.150;8.150;2023-07-29T03:16:31;12.70;;;7.50;;
22357;SDS011;11346;50.150;8.150;2023-07-29T03:18:58;10.67;;;7.47;;
22357;SDS011;11346;50.150;8.150;2023-07-29T03:21:25;10.27;;;6.40;;
22357;SDS011;11346;50.150;8.150;2023-07-29T03:23:53;6.73;;;5.70;;
22357;SDS011;11346;50.150;8.150;2023-07-29T03:26:20;7.37;;;5.83;;
22357;SDS011;11346;50.150;8.150;2023-07-29T03:28:47;7.13;;;5.90;;
22357;SDS011;11346;50.150;8.150;2023-07-29T03:31:14;6.97;;;5.37;;
22357;SDS011;11346;50.150;8.150;2023-07-29T03:33:41;7.07;;;5.93;;
22357;SDS011;11346;50.150;8.150;2023-07-29T03:36:08;7.87;;;5.83;;
22357;SDS011;11346;50.150;8.150;2023-07-29T03:38:35;10.50;;;6.10;;
22357;SDS011;11346;50.150;8.150;2023-07-29T03:41:06;6.20;;;5.60;;
22357;SDS011;11346;50.150;8.150;2023-07-29T03:43:33;4.50;;;4.10;;
22357;SDS011;11346;50.150;8.150;2023-07-29T03:46:00;6.07;;;4.23;;
22357;SDS011;11346;50.150;8.150;2023-07-29T03:48:27;4.27;;;3.90;;
22357;SDS011;11346;50.150;8.150;2023-07-29T03:50:56;3.60;;;3.33;;
22357;SDS011;11346;50.150;8.150;2023-07-29T03:53:23;3.80;;;3.40;;
22357;SDS011;11346;50.150;8.150;2023-07-29T03:55:50;3.63;;;3.33;;
22357;SDS011;11346;50.150;8.150;2023-07-29T03:58:18;3.73;;;3.43;;
22357;SDS011;11346;50.150;8.150;2023-07-29T04:00:45;5.00;;;3.73;;
22357;SDS011;11346;50.150;8.150;2023-07-29T04:03:13;3.57;;;3.33;;
22357;SDS011;11346;50.150;8.150;2023-07-29T04:05:40;4.23;;;3.40;;
22357;SDS011;11346;50.150;8.150;2023-07-29T04:08:07;6.87;;;3.50;;
22357;SDS011;11346;50.150;8.150;2023-07-29T04:10:35;3.60;;;3.30;;
22357;SDS011;11346;50.150;8.150;2023-07-29T04:13:02;3.83;;;3.40;;
22357;SDS011;11346;50.150;8.150;2023-07-29T04:15:31;3.90;;;3.47;;
22357;SDS011;11346;50.150;8.150;2023-07-29T04:17:58;3.60;;;3.30;;
22357;SDS011;11346;50.150;8.150;2023-07-29T04:20:25;4.10;;;3.50;;
22357;SDS011;11346;50.150;8.150;2023-07-29T04:22:52;3.83;;;3.50;;
22357;SDS011;11346;50.150;8.150;2023-07-29T04:25:19;3.67;;;3.37;;
22357;SDS011;11346;50.150;8.150;2023-07-29T04:27:46;3.90;;;3.53;;
22357;SDS011;11346;50.150;8.150;2023-07-29T04:30:13;3.33;;;3.13;;
22357;SDS011;11346;50.150;8.150;2023-07-29T04:32:42;4.73;;;3.23;;
22357;SDS011;11346;50.150;8.150;2023-07-29T04:35:10;7.17;;;3.03;;
22357;SDS011;11346;50.150;8.150;2023-07-29T04:37:37;4.43;;;3.50;;
22357;SDS011;11346;50.150;8.150;2023-07-29T04:40:04;3.13;;;2.93;;
22357;SDS011;11346;50.150;8.150;2023-07-29T04:42:31;7.17;;;3.13;;
22357;SDS011;11346;50.150;8.150;2023-07-29T04:44:58;3.07;;;2.87;;
22357;SDS011;11346;50.150;8.150;2023-07-29T04:47:26;5.13;;;2.80;;
22357;SDS011;11346;50.150;8.150;2023-07-29T04:49:54;3.30;;;3.10;;
22357;SDS011;11346;50.150;8.150;2023-07-29T04:52:21;7.03;;;3.00;;
22357;SDS011;11346;50.150;8.150;2023-07-29T04:54:48;2.43;;;2.33;;
22357;SDS011;11346;50.150;8.150;2023-07-29T04:57:15;3.27;;;2.73;;
22357;SDS011;11346;50.150;8.150;2023-07-29T04:59:42;2.97;;;2.77;;
22357;SDS011;11346;50.150;8.150;2023-07-29T05:02:09;3.23;;;2.97;;
22357;SDS011;11346;50.150;8.150;2023-07-29T05:04:36;3.30;;;3.10;;
22357;SDS011;11346;50.150;8.150;2023-07-29T05:07:05;3.70;;;2.97;;
22357;SDS011;11346;50.150;8.150;2023-07-29T05:09:32;3.20;;;2.90;;
22357;SDS011;11346;50.150;8.150;2023-07-29T05:11:59;3.37;;;3.07;;
22357;SDS011;11346;50.150;8.150;2023-07-29T05:14:26;3.63;;;2.93;;
22357;SDS011;11346;50.150;8.150;2023-07-29T05:16:53;3.30;;;3.10;;
22357;SDS011;11346;50.150;8.150;2023-07-29T05:19:20;2.90;;;2.70;;
22357;SDS011;11346;50.150;8.150;2023-07-29T05:21:48;2.73;;;2.40;;
22357;SDS011;11346;50.150;8.150;2023-07-29T05:24:16;3.63;;;2.70;;
22357;SDS011;11346;50.150;8.150;2023-07-29T05:26:43;4.20;;;3.17;;
22357;SDS011;11346;50.150;8.150;2023-07-29T05:29:10;2.90;;;2.70;;
22357;SDS011;11346;50.150;8.150;2023-07-29T05:31:37;2.97;;;2.70;;
22357;SDS011;11346;50.150;8.150;2023-07-29T05:34:04;2.93;;;2.73;;
22357;SDS011;11346;50.150;8.150;2023-07-29T05:36:32;3.37;;;3.07;;
22357;SDS011;11346;50.150;8.150;2023-07-29T05:38:59;2.90;;;2.70;;
22357;SDS011;11346;50.150;8.150;2023-07-29T05:41:27;3.37;;;2.90;;
22357;SDS011;11346;50.150;8.150;2023-07-29T05:43:54;4.67;;;2.83;;
22357;SDS011;11346;50.150;8.150;2023-07-29T05:46:21;4.87;;;2.80;;
22357;SDS011;11346;50.150;8.150;2023-07-29T05:48:48;5.10;;;3.00;;
22357;SDS011;11346;50.150;8.150;2023-07-29T05:51:15;5.87;;;3.00;;
22357;SDS011;11346;50.150;8.150;2023-07-29T05:53:42;3.00;;;2.80;;
22357;SDS011;11346;50.150;8.150;2023-07-29T05:56:09;2.60;;;2.40;;
22357;SDS011;11346;50.150;8.150;2023-07-29T05:58:38;3.03;;;2.83;;
22357;SDS011;11346;50.150;8.150;2023-07-29T06:01:05;3.10;;;2.90;;
22357;SDS011;11346;50.150;8.150;2023-07-29T06:03:32;4.40;;;3.00;;
22357;SDS011;11346;50.150;8.150;2023-07-29T06:05:59;3.50;;;2.67;;
22357;SDS011;11346;50.150;8.150;2023-07-29T06:08:26;5.00;;;3.40;;
22357;SDS011;11346;50.150;8.150;2023-07-29T06:10:54;5.80;;;3.97;;
22357;SDS011;11346;50.150;8.150;2023-07-29T06:13:21;3.70;;;3.40;;
22357;SDS011;11346;50.150;8.150;2023-07-29T06:15:49;5.10;;;3.40;;
22357;SDS011;11346;50.150;8.150;2023-07-29T06:18:16;4.13;;;3.33;;
22357;SDS011;11346;50.150;8.150;2023-07-29T06:20:43;4.83;;;3.20;;
22357;SDS011;11346;50.150;8.150;2023-07-29T06:23:10;3.50;;;3.20;;
22357;SDS011;11346;50.150;8.150;2023-07-29T06:25:37;3.60;;;3.10;;
22357;SDS011;11346;50.150;8.150;2023-07-29T06:28:05;3.57;;;3.27;;
22357;SDS011;11346;50.150;8.150;2023-07-29T06:30:32;4.07;;;3.40;;
22357;SDS011;11346;50.150;8.150;2023-07-29T06:33:00;3.60;;;3.30;;
22357;SDS011;11346;50.150;8.150;2023-07-29T06:35:28;3.63;;;3.33;;
22357;SDS011;11346;50.150;8.150;2023-07-29T06:37:55;3.40;;;3.10;;
22357;SDS011;11346;50.150;8.150;2023-07-29T06:40:22;4.90;;;3.37;;
22357;SDS011;11346;50.150;8.150;2023-07-29T06:42:49;3.23;;;3.03;;
22357;SDS011;11346;50.150;8.150;2023-07-29T06:45:16;8.07;;;3.57;;
22357;SDS011;11346;50.150;8.150;2023-07-29T06:47:44;7.53;;;3.57;;
22357;SDS011;11346;50.150;8.150;2023-07-29T06:50:12;3.90;;;3.50;;
22357;SDS011;11346;50.150;8.150;2023-07-29T06:52:39;3.70;;;3.40;;
22357;SDS011;11346;50.150;8.150;2023-07-29T06:55:07;3.50;;;3.20;;
22357;SDS011;11346;50.150;8.150;2023-07-29T06:57:34;4.80;;;3.83;;
22357;SDS011;11346;50.150;8.150;2023-07-29T07:00:01;5.03;;;3.63;;
22357;SDS011;11346;50.150;8.150;2023-07-29T07:02:28;3.80;;;3.50;;
22357;SDS011;11346;50.150;8.150;2023-07-29T07:04:55;7.07;;;4.13;;
22357;SDS011;11346;50.150;8.150;2023-07-29T07:07:24;3.70;;;3.40;;
22357;SDS011;11346;50.150;8.150;2023-07-29T07:09:51;3.03;;;2.83;;
22357;SDS011;11346;50.150;8.150;2023-07-29T07:12:18;2.93;;;2.73;;
22357;SDS011;11346;50.150;8.150;2023-07-29T07:14:45;3.63;;;2.60;;
22357;SDS011;11346;50.150;8.150;2023-07-29T07:17:12;2.70;;;2.60;;
22357;SDS011;11346;50.150;8.150;2023-07-29T07:19:39;4.10;;;2.63;;
22357;SDS011;11346;50.150;8.150;2023-07-29T07:22:06;2.83;;;2.63;;
22357;SDS011;11346;50.150;8.150;2023-07-29T07:24:34;3.50;;;3.30;;
22357;SDS011;11346;50.150;8.150;2023-07-29T07:27:02;3.60;;;3.30;;
22357;SDS011;11346;50.150;8.150;2023-07-29T07:29:29;3.53;;;3.10;;
22357;SDS011;11346;50.150;8.150;2023-07-29T07:31:56;4.07;;;3.03;;
22357;SDS011;11346;50.150;8.150;2023-07-29T07:34:23;2.90;;;2.70;;
22357;SDS011;11346;50.150;8.150;2023-07-29T07:36:50;3.63;;;2.93;;
22357;SDS011;11346;50.150;8.150;2023-07-29T07:39:17;3.03;;;2.83;;
22357;SDS011;11346;50.150;8.150;2023-07-29T07:41:46;3.20;;;2.90;;
22357;SDS011;11346;50.150;8.150;2023-07-29T07:44:13;8.07;;;2.97;;
22357;SDS011;11346;50.150;8.150;2023-07-29T07:46:42;2.50;;;2.30;;
22357;SDS011;11346;50.150;8.150;2023-07-29T07:49:10;2.40;;;2.13;;
22357;SDS011;11346;50.150;8.150;2023-07-29T07:51:37;2.20;;;2.10;;
22357;SDS011;11346;50.150;8.150;2023-07-29T07:54:04;2.00;;;1.90;;
22357;SDS011;11346;50.150;8.150;2023-07-29T07:56:31;2.37;;;1.80;;
22357;SDS011;11346;50.150;8.150;2023-07-29T07:59:00;1.90;;;1.80;;
22357;SDS011;11346;50.150;8.150;2023-07-29T08:01:27;2.23;;;2.07;;
22357;SDS011;11346;50.150;8.150;2023-07-29T08:03:55;1.70;;;1.60;;
22357;SDS011;11346;50.150;8.150;2023-07-29T08:06:22;2.47;;;1.87;;
22357;SDS011;11346;50.150;8.150;2023-07-29T08:08:49;1.97;;;1.87;;
22357;SDS011;11346;50.150;8.150;2023-07-29T08:11:16;1.60;;;1.57;;
22357;SDS011;11346;50.150;8.150;2023-07-29T08:13:43;2.00;;;1.47;;
22357;SDS011;11346;50.150;8.150;2023-07-29T08:16:12;1.77;;;1.20;;
22357;SDS011;11346;50.150;8.150;2023-07-29T08:18:39;1.73;;;1.63;;
22357;SDS011;11346;50.150;8.150;2023-07-29T08:21:06;1.73;;;1.57;;
22357;SDS011;11346;50.150;8.150;2023-07-29T08:23:33;2.60;;;1.53;;
22357;SDS011;11346;50.150;8.150;2023-07-29T08:26:01;1.90;;;1.47;;
22357;SDS011;11346;50.150;8.150;2023-07-29T08:28:30;1.70;;;1.60;;
22357;SDS011;11346;50.150;8.150;2023-07-29T08:30:57;1.63;;;1.53;;
22357;SDS011;11346;50.150;8.150;2023-07-29T08:33:26;1.57;;;1.47;;
22357;SDS011;11346;50.150;8.150;2023-07-29T08:35:53;2.70;;;1.67;;
22357;SDS011;11346;50.150;8.150;2023-07-29T08:38:20;2.17;;;1.83;;
22357;SDS011;11346;50.150;8.150;2023-07-29T08:40:49;1.67;;;1.57;;
22357;SDS011;11346;50.150;8.150;2023-07-29T08:43:17;1.83;;;1.73;;
22357;SDS011;11346;50.150;8.150;2023-07-29T08:45:45;3.37;;;1.50;;
22357;SDS011;11346;50.150;8.150;2023-07-29T08:48:13;1.80;;;1.50;;
22357;SDS011;11346;50.150;8.150;2023-07-29T08:50:44;1.57;;;1.47;;
22357;SDS011;11346;50.150;8.150;2023-07-29T08:53:11;1.40;;;1.40;;
22357;SDS011;11346;50.150;8.150;2023-07-29T08:55:38;1.57;;;1.47;;
22357;SDS011;11346;50.150;8.150;2023-07-29T08:58:06;2.20;;;1.40;;
22357;SDS011;11346;50.150;8.150;2023-07-29T09:00:33;1.50;;;1.40;;
22357;SDS011;11346;50.150;8.150;2023-07-29T09:03:01;2.10;;;1.77;;
22357;SDS011;11346;50.150;8.150;2023-07-29T09:05:32;1.50;;;1.40;;
22357;SDS011;11346;50.150;8.150;2023-07-29T09:08:01;1.83;;;1.70;;
22357;SDS011;11346;50.150;8.150;2023-07-29T09:10:29;2.40;;;1.57;;
22357;SDS011;11346;50.150;8.150;2023-07-29T09:12:56;1.57;;;1.47;;
22357;SDS011;11346;50.150;8.150;2023-07-29T09:15:26;1.60;;;1.50;;
22357;SDS011;11346;50.150;8.150;2023-07-29T09:17:54;1.43;;;1.33;;
22357;SDS011;11346;50.150;8.150;2023-07-29T09:20:25;1.40;;;1.40;;
22357;SDS011;11346;50.150;8.150;2023-07-29T09:22:53;1.87;;;1.30;;
22357;SDS011;11346;50.150;8.150;2023-07-29T09:25:25;2.23;;;1.50;;
22357;SDS011;11346;50.150;8.150;2023-07-29T09:27:53;2.43;;;1.53;;
22357;SDS011;11346;50.150;8.150;2023-07-29T09:30:25;2.40;;;1.60;;
22357;SDS011;11346;50.150;8.150;2023-07-29T09:32:54;1.60;;;1.50;;
22357;SDS011;11346;50.150;8.150;2023-07-29T09:35:21;1.80;;;1.70;;
22357;SDS011;11346;50.150;8.150;2023-07-29T09:37:48;1.83;;;1.70;;
22357;SDS011;11346;50.150;8.150;2023-07-29T09:40:17;1.80;;;1.70;;
22357;SDS011;11346;50.150;8.150;2023-07-29T09:42:49;1.80;;;1.70;;
22357;SDS011;11346;50.150;8.150;2023-07-29T09:45:20;3.60;;;1.57;;
22357;SDS011;11346;50.150;8.150;2023-07-29T09:47:47;1.33;;;1.33;;
22357;SDS011;11346;50.150;8.150;2023-07-29T09:50:14;1.93;;;1.83;;
22357;SDS011;11346;50.150;8.150;2023-07-29T09:52:42;1.90;;;1.80;;
22357;SDS011;11346;50.150;8.150;2023-07-29T09:55:10;2.23;;;1.63;;
22357;SDS011;11346;50.150;8.150;2023-07-29T09:57:37;2.53;;;1.80;;
22357;SDS011;11346;50.150;8.150;2023-07-29T10:00:07;2.10;;;1.87;;
22357;SDS011;11346;50.150;8.150;2023-07-29T10:02:36;2.07;;;1.97;;
22357;SDS011;11346;50.150;8.150;2023-07-29T10:05:04;2.17;;;1.90;;
22357;SDS011;11346;50.150;8.150;2023-07-29T10:07:32;3.20;;;1.70;;
22357;SDS011;11346;50.150;8.150;2023-07-29T10:10:00;2.30;;;1.43;;
22357;SDS011;11346;50.150;8.150;2023-07-29T10:12:28;1.90;;;1.80;;
22357;SDS011;11346;50.150;8.150;2023-07-29T10:14:55;2.07;;;1.67;;
22357;SDS011;11346;50.150;8.150;2023-07-29T10:17:27;3.67;;;1.60;;
22357;SDS011;11346;50.150;8.150;2023-07-29T10:19:54;1.67;;;1.47;;
22357;SDS011;11346;50.150;8.150;2023-07-29T10:22:24;1.50;;;1.30;;
22357;SDS011;11346;50.150;8.150;2023-07-29T10:24:51;3.47;;;1.60;;
22357;SDS011;11346;50.150;8.150;2023-07-29T10:27:20;2.37;;;1.43;;
22357;SDS011;11346;50.150;8.150;2023-07-29T10:29:49;1.60;;;1.50;;
22357;SDS011;11346;50.150;8.150;2023-07-29T10:32:16;3.30;;;1.30;;
22357;SDS011;11346;50.150;8.150;2023-07-29T10:34:45;1.70;;;1.60;;
22357;SDS011;11346;50.150;8.150;2023-07-29T10:37:12;1.90;;;1.70;;
22357;SDS011;11346;50.150;8.150;2023-07-29T10:39:39;1.30;;;1.30;;
22357;SDS011;11346;50.150;8.150;2023-07-29T10:42:07;1.77;;;1.50;;
22357;SDS011;11346;50.150;8.150;2023-07-29T10:44:47;1.80;;;1.70;;
22357;SDS011;11346;50.150;8.150;2023-07-29T10:47:18;1.30;;;1.30;;
22357;SDS011;11346;50.150;8.150;2023-07-29T10:49:47;1.60;;;1.50;;
22357;SDS011;11346;50.150;8.150;2023-07-29T10:52:14;2.93;;;1.50;;
22357;SDS011;11346;50.150;8.150;2023-07-29T10:54:42;1.70;;;1.57;;
22357;SDS011;11346;50.150;8.150;2023-07-29T10:57:12;1.70;;;1.60;;
22357;SDS011;11346;50.150;8.150;2023-07-29T10:59:40;4.43;;;1.50;;
22357;SDS011;11346;50.150;8.150;2023-07-29T11:02:15;1.63;;;1.53;;
22357;SDS011;11346;50.150;8.150;2023-07-29T11:04:49;2.30;;;1.63;;
22357;SDS011;11346;50.150;8.150;2023-07-29T11:07:20;2.53;;;1.50;;
22357;SDS011;11346;50.150;8.150;2023-07-29T11:09:56;2.40;;;1.47;;
22357;SDS011;11346;50.150;8.150;2023-07-29T11:12:39;1.20;;;1.20;;
22357;SDS011;11346;50.150;8.150;2023-07-29T11:15:17;1.70;;;1.60;;
22357;SDS011;11346;50.150;8.150;2023-07-29T11:17:45;2.00;;;1.50;;
22357;SDS011;11346;50.150;8.150;2023-07-29T11:20:15;1.63;;;1.53;;
22357;SDS011;11346;50.150;8.150;2023-07-29T11:22:42;4.40;;;1.50;;
22357;SDS011;11346;50.150;8.150;2023-07-29T11:25:10;4.57;;;1.53;;
22357;SDS011;11346;50.150;8.150;2023-07-29T11:27:38;2.37;;;1.60;;
22357;SDS011;11346;50.150;8.150;2023-07-29T11:30:05;2.00;;;1.70;;
22357;SDS011;11346;50.150;8.150;2023-07-29T11:32:33;1.70;;;1.60;;
22357;SDS011;11346;50.150;8.150;2023-07-29T11:35:01;1.40;;;1.30;;
22357;SDS011;11346;50.150;8.150;2023-07-29T11:37:30;4.10;;;1.87;;
22357;SDS011;11346;50.150;8.150;2023-07-29T11:39:57;1.50;;;1.40;;
22357;SDS011;11346;50.150;8.150;2023-07-29T11:42:24;3.00;;;1.50;;
22357;SDS011;11346;50.150;8.150;2023-07-29T11:44:51;2.10;;;1.60;;
22357;SDS011;11346;50.150;8.150;2023-07-29T11:47:18;5.23;;;1.63;;
22357;SDS011;11346;50.150;8.150;2023-07-29T11:49:45;1.90;;;1.70;;
22357;SDS011;11346;50.150;8.150;2023-07-29T11:52:12;2.00;;;1.77;;
22357;SDS011;11346;50.150;8.150;2023-07-29T11:54:40;2.10;;;1.60;;
22357;SDS011;11346;50.150;8.150;2023-07-29T11:57:08;2.60;;;1.67;;
22357;SDS011;11346;50.150;8.150;2023-07-29T11:59:35;1.90;;;1.80;;
22357;SDS011;11346;50.150;8.150;2023-07-29T12:02:05;1.80;;;1.70;;
22357;SDS011;11346;50.150;8.150;2023-07-29T12:04:32;2.50;;;1.50;;
22357;SDS011;11346;50.150;8.150;2023-07-29T12:07:00;4.70;;;1.80;;
22357;SDS011;11346;50.150;8.150;2023-07-29T12:09:27;2.80;;;1.60;;
22357;SDS011;11346;50.150;8.150;2023-07-29T12:11:57;2.87;;;1.80;;
22357;SDS011;11346;50.150;8.150;2023-07-29T12:14:25;2.13;;;1.90;;
22357;SDS011;11346;50.150;8.150;2023-07-29T12:16:52;2.00;;;1.77;;
22357;SDS011;11346;50.150;8.150;2023-07-29T12:19:19;1.80;;;1.70;;
22357;SDS011;11346;50.150;8.150;2023-07-29T12:21:47;1.90;;;1.60;;
22357;SDS011;11346;50.150;8.150;2023-07-29T12:24:14;2.00;;;1.80;;
22357;SDS011;11346;50.150;8.150;2023-07-29T12:26:41;2.60;;;1.80;;
22357;SDS011;11346;50.150;8.150;2023-07-29T12:29:13;1.73;;;1.63;;
22357;SDS011;11346;50.150;8.150;2023-07-29T12:31:40;2.20;;;1.57;;
22357;SDS011;11346;50.150;8.150;2023-07-29T12:34:07;1.70;;;1.60;;
22357;SDS011;11346;50.150;8.150;2023-07-29T12:36:41;2.47;;;1.70;;
22357;SDS011;11346;50.150;8.150;2023-07-29T12:39:15;1.80;;;1.70;;
22357;SDS011;11346;50.150;8.150;2023-07-29T12:41:42;2.70;;;1.80;;
22357;SDS011;11346;50.150;8.150;2023-07-29T12:44:09;1.70;;;1.60;;
22357;SDS011;11346;50.150;8.150;2023-07-29T12:46:38;1.70;;;1.60;;
22357;SDS011;11346;50.150;8.150;2023-07-29T12:49:05;1.63;;;1.53;;
22357;SDS011;11346;50.150;8.150;2023-07-29T12:51:32;2.40;;;1.60;;
22357;SDS011;11346;50.150;8.150;2023-07-29T12:53:59;1.80;;;1.70;;
22357;SDS011;11346;50.150;8.150;2023-07-29T12:56:27;4.10;;;1.50;;
22357;SDS011;11346;50.150;8.150;2023-07-29T12:58:55;1.70;;;1.60;;
22357;SDS011;11346;50.150;8.150;2023-07-29T13:01:23;2.13;;;1.40;;
22357;SDS011;11346;50.150;8.150;2023-07-29T13:03:51;3.50;;;1.63;;
22357;SDS011;11346;50.150;8.150;2023-07-29T13:06:18;1.63;;;1.53;;
22357;SDS011;11346;50.150;8.150;2023-07-29T13:08:45;2.17;;;1.60;;
22357;SDS011;11346;50.150;8.150;2023-07-29T13:11:13;1.93;;;1.73;;
22357;SDS011;11346;50.150;8.150;2023-07-29T13:13:40;1.53;;;1.43;;
22357;SDS011;11346;50.150;8.150;2023-07-29T13:16:07;1.63;;;1.50;;
22357;SDS011;11346;50.150;8.150;2023-07-29T13:18:34;1.90;;;1.70;;
22357;SDS011;11346;50.150;8.150;2023-07-29T13:21:02;2.50;;;1.43;;
22357;SDS011;11346;50.150;8.150;2023-07-29T13:23:29;1.30;;;1.30;;
22357;SDS011;11346;50.150;8.150;2023-07-29T13:25:56;2.37;;;1.90;;
22357;SDS011;11346;50.150;8.150;2023-07-29T13:28:23;1.67;;;1.57;;
22357;SDS011;11346;50.150;8.150;2023-07-29T13:30:50;4.10;;;1.60;;
22357;SDS011;11346;50.150;8.150;2023-07-29T13:33:17;2.50;;;1.50;;
22357;SDS011;11346;50.150;8.150;2023-07-29T13:35:44;1.60;;;1.50;;
22357;SDS011;11346;50.150;8.150;2023-07-29T13:38:13;3.63;;;1.60;;
22357;SDS011;11346;50.150;8.150;2023-07-29T13:40:41;1.40;;;1.30;;
22357;SDS011;11346;50.150;8.150;2023-07-29T13:43:08;1.50;;;1.40;;
22357;SDS011;11346;50.150;8.150;2023-07-29T13:45:35;1.83;;;1.40;;
22357;SDS011;11346;50.150;8.150;2023-07-29T13:48:02;1.87;;;1.57;;
22357;SDS011;11346;50.150;8.150;2023-07-29T13:50:29;1.70;;;1.60;;
22357;SDS011;11346;50.150;8.150;2023-07-29T13:52:56;2.53;;;1.23;;
22357;SDS011;11346;50.150;8.150;2023-07-29T13:55:25;1.67;;;1.57;;
22357;SDS011;11346;50.150;8.150;2023-07-29T13:57:52;1.70;;;1.40;;
22357;SDS011;11346;50.150;8.150;2023-07-29T14:00:20;1.70;;;1.60;;
22357;SDS011;11346;50.150;8.150;2023-07-29T14:02:47;1.90;;;1.43;;
22357;SDS011;11346;50.150;8.150;2023-07-29T14:05:14;2.17;;;1.73;;
22357;SDS011;11346;50.150;8.150;2023-07-29T14:07:41;2.93;;;1.70;;
22357;SDS011;11346;50.150;8.150;2023-07-29T14:10:08;2.43;;;1.70;;
22357;SDS011;11346;50.150;8.150;2023-07-29T14:12:36;2.23;;;1.70;;
22357;SDS011;11346;50.150;8.150;2023-07-29T14:15:04;1.90;;;1.57;;
22357;SDS011;11346;50.150;8.150;2023-07-29T14:17:31;1.90;;;1.60;;
22357;SDS011;11346;50.150;8.150;2023-07-29T14:19:58;2.00;;;1.67;;
22357;SDS011;11346;50.150;8.150;2023-07-29T14:22:25;1.90;;;1.50;;
22357;SDS011;11346;50.150;8.150;2023-07-29T14:24:52;2.07;;;1.47;;
22357;SDS011;11346;50.150;8.150;2023-07-29T14:27:19;2.07;;;1.53;;
22357;SDS011;11346;50.150;8.150;2023-07-29T14:29:48;2.37;;;1.40;;
22357;SDS011;11346;50.150;8.150;2023-07-29T14:32:15;1.53;;;1.43;;
22357;SDS011;11346;50.150;8.150;2023-07-29T14:34:42;2.53;;;1.60;;
22357;SDS011;11346;50.150;8.150;2023-07-29T14:37:09;3.00;;;1.50;;
22357;SDS011;11346;50.150;8.150;2023-07-29T14:39:36;1.80;;;1.70;;
22357;SDS011;11346;50.150;8.150;2023-07-29T14:42:03;1.60;;;1.50;;
22357;SDS011;11346;50.150;8.150;2023-07-29T14:44:31;1.90;;;1.60;;
22357;SDS011;11346;50.150;8.150;2023-07-29T14:47:00;1.63;;;1.53;;
22357;SDS011;11346;50.150;8.150;2023-07-29T14:49:27;1.60;;;1.50;;
22357;SDS011;11346;50.150;8.150;2023-07-29T14:51:54;2.20;;;1.80;;